sensor_id;sensor_type;location;lat;lon;timestamp;P1;durP1;ratioP1;P2;durP2;ratioP2
23702;SDS011;12030;50.376;8.762;2024-01-30T00:02:15;12.70;;;9.90;;
23702;SDS011;12030;50.376;8.762;2024-01-30T00:04:41;12.20;;;9.23;;
23702;SDS011;12030;50.376;8.762;2024-01-30T00:07:06;10.23;;;8.87;;
23702;SDS011;12030;50.376;8.762;2024-01-30T00:09:32;12.57;;;9.00;;
23702;SDS011;12030;50.376;8.762;2024-01-30T00:11:58;12.77;;;8.60;;
23702;SDS011;12030;50.376;8.762;2024-01-30T00:14:23;12.83;;;9.33;;
23702;SDS011;12030;50.376;8.762;2024-01-30T00:16:50;13.30;;;9.20;;
23702;SDS011;12030;50.376;8.762;2024-01-30T00:19:16;12.10;;;9.23;;
23702;SDS011;12030;50.376;8.762;2024-01-30T00:21:42;12.00;;;9.07;;
23702;SDS011;12030;50.376;8.762;2024-01-30T00:24:08;11.60;;;9.00;;
23702;SDS011;12030;50.376;8.762;2024-01-30T00:26:33;14.70;;;8.53;;
23702;SDS011;12030;50.376;8.762;2024-01-30T00:28:59;12.00;;;9.23;;
23702;SDS011;12030;50.376;8.762;2024-01-30T00:31:25;12.00;;;8.80;;
23702;SDS011;12030;50.376;8.762;2024-01-30T00:33:50;12.40;;;9.03;;
23702;SDS011;12030;50.376;8.762;2024-01-30T00:36:16;11.50;;;9.40;;
23702;SDS011;12030;50.376;8.762;2024-01-30T00:38:41;14.93;;;9.10;;
23702;SDS011;12030;50.376;8.762;2024-01-30T00:41:10;10.33;;;8.50;;
23702;SDS011;12030;50.376;8.762;2024-01-30T00:43:36;12.07;;;8.43;;
23702;SDS011;12030;50.376;8.762;2024-01-30T00:46:02;11.53;;;8.87;;
23702;SDS011;12030;50.376;8.762;2024-01-30T00:48:28;13.17;;;8.57;;
23702;SDS011;12030;50.376;8.762;2024-01-30T00:50:53;10.80;;;7.90;;
23702;SDS011;12030;50.376;8.762;2024-01-30T00:53:19;8.93;;;7.50;;
23702;SDS011;12030;50.376;8.762;2024-01-30T00:55:45;8.70;;;7.50;;
23702;SDS011;12030;50.376;8.762;2024-01-30T00:58:10;9.27;;;6.80;;
23702;SDS011;12030;50.376;8.762;2024-01-30T01:00:36;13.07;;;7.27;;
23702;SDS011;12030;50.376;8.762;2024-01-30T01:03:02;12.83;;;8.20;;
23702;SDS011;12030;50.376;8.762;2024-01-30T01:05:28;9.37;;;7.37;;
23702;SDS011;12030;50.376;8.762;2024-01-30T01:07:54;10.73;;;7.70;;
23702;SDS011;12030;50.376;8.762;2024-01-30T01:10:19;10.27;;;6.93;;
23702;SDS011;12030;50.376;8.762;2024-01-30T01:12:45;8.57;;;7.23;;
23702;SDS011;12030;50.376;8.762;2024-01-30T01:15:11;9.03;;;7.63;;
23702;SDS011;12030;50.376;8.762;2024-01-30T01:17:37;12.00;;;7.90;;
23702;SDS011;12030;50.376;8.762;2024-01-30T01:20:04;12.03;;;8.33;;
23702;SDS011;12030;50.376;8.762;2024-01-30T01:22:31;12.77;;;8.20;;
23702;SDS011;12030;50.376;8.762;2024-01-30T01:24:57;9.07;;;7.33;;
23702;SDS011;12030;50.376;8.762;2024-01-30T01:27:23;10.93;;;7.63;;
23702;SDS011;12030;50.376;8.762;2024-01-30T01:29:48;10.33;;;7.87;;
23702;SDS011;12030;50.376;8.762;2024-01-30T01:32:14;9.20;;;7.87;;
23702;SDS011;12030;50.376;8.762;2024-01-30T01:34:39;10.87;;;8.10;;
23702;SDS011;12030;50.376;8.762;2024-01-30T01:37:05;11.03;;;7.20;;
23702;SDS011;12030;50.376;8.762;2024-01-30T01:39:30;11.63;;;7.80;;
23702;SDS011;12030;50.376;8.762;2024-01-30T01:41:56;11.57;;;7.40;;
23702;SDS011;12030;50.376;8.762;2024-01-30T01:44:21;9.93;;;7.60;;
23702;SDS011;12030;50.376;8.762;2024-01-30T01:46:47;10.17;;;7.57;;
23702;SDS011;12030;50.376;8.762;2024-01-30T01:49:13;9.87;;;7.73;;
23702;SDS011;12030;50.376;8.762;2024-01-30T01:51:39;11.17;;;7.53;;
23702;SDS011;12030;50.376;8.762;2024-01-30T01:54:06;9.37;;;7.50;;
23702;SDS011;12030;50.376;8.762;2024-01-30T01:56:32;13.03;;;8.40;;
23702;SDS011;12030;50.376;8.762;2024-01-30T01:59:05;11.37;;;8.13;;
23702;SDS011;12030;50.376;8.762;2024-01-30T02:01:38;8.73;;;7.13;;
23702;SDS011;12030;50.376;8.762;2024-01-30T02:04:06;10.03;;;7.47;;
23702;SDS011;12030;50.376;8.762;2024-01-30T02:06:32;10.23;;;7.47;;
23702;SDS011;12030;50.376;8.762;2024-01-30T02:08:59;12.17;;;8.27;;
23702;SDS011;12030;50.376;8.762;2024-01-30T02:11:25;12.60;;;8.83;;
23702;SDS011;12030;50.376;8.762;2024-01-30T02:13:50;11.97;;;8.20;;
23702;SDS011;12030;50.376;8.762;2024-01-30T02:16:17;11.47;;;8.40;;
23702;SDS011;12030;50.376;8.762;2024-01-30T02:18:42;11.93;;;8.57;;
23702;SDS011;12030;50.376;8.762;2024-01-30T02:21:12;13.43;;;7.43;;
23702;SDS011;12030;50.376;8.762;2024-01-30T02:23:38;10.03;;;7.00;;
23702;SDS011;12030;50.376;8.762;2024-01-30T02:26:05;12.63;;;7.90;;
23702;SDS011;12030;50.376;8.762;2024-01-30T02:28:31;13.17;;;9.17;;
23702;SDS011;12030;50.376;8.762;2024-01-30T02:30:57;12.00;;;8.80;;
23702;SDS011;12030;50.376;8.762;2024-01-30T02:33:22;12.60;;;8.37;;
23702;SDS011;12030;50.376;8.762;2024-01-30T02:35:48;11.90;;;8.50;;
23702;SDS011;12030;50.376;8.762;2024-01-30T02:38:14;11.23;;;7.73;;
23702;SDS011;12030;50.376;8.762;2024-01-30T02:40:40;9.80;;;7.77;;
23702;SDS011;12030;50.376;8.762;2024-01-30T02:43:06;10.63;;;7.67;;
23702;SDS011;12030;50.376;8.762;2024-01-30T02:45:31;12.30;;;8.47;;
23702;SDS011;12030;50.376;8.762;2024-01-30T02:47:57;10.90;;;7.03;;
23702;SDS011;12030;50.376;8.762;2024-01-30T02:50:22;11.13;;;8.30;;
23702;SDS011;12030;50.376;8.762;2024-01-30T02:52:48;12.10;;;8.33;;
23702;SDS011;12030;50.376;8.762;2024-01-30T02:55:13;9.87;;;7.33;;
23702;SDS011;12030;50.376;8.762;2024-01-30T02:57:42;10.17;;;7.70;;
23702;SDS011;12030;50.376;8.762;2024-01-30T03:00:08;12.67;;;8.20;;
23702;SDS011;12030;50.376;8.762;2024-01-30T03:02:34;12.73;;;8.33;;
23702;SDS011;12030;50.376;8.762;2024-01-30T03:05:00;14.00;;;8.13;;
23702;SDS011;12030;50.376;8.762;2024-01-30T03:07:26;10.70;;;8.57;;
23702;SDS011;12030;50.376;8.762;2024-01-30T03:09:51;12.00;;;7.83;;
23702;SDS011;12030;50.376;8.762;2024-01-30T03:12:17;12.63;;;8.57;;
23702;SDS011;12030;50.376;8.762;2024-01-30T03:14:43;12.33;;;7.80;;
23702;SDS011;12030;50.376;8.762;2024-01-30T03:17:08;11.60;;;8.27;;
23702;SDS011;12030;50.376;8.762;2024-01-30T03:19:34;12.07;;;7.83;;
23702;SDS011;12030;50.376;8.762;2024-01-30T03:21:59;11.83;;;8.43;;
23702;SDS011;12030;50.376;8.762;2024-01-30T03:24:25;11.47;;;8.03;;
23702;SDS011;12030;50.376;8.762;2024-01-30T03:26:50;10.57;;;7.63;;
23702;SDS011;12030;50.376;8.762;2024-01-30T03:29:16;10.93;;;8.47;;
23702;SDS011;12030;50.376;8.762;2024-01-30T03:31:42;11.37;;;7.20;;
23702;SDS011;12030;50.376;8.762;2024-01-30T03:34:07;11.33;;;7.80;;
23702;SDS011;12030;50.376;8.762;2024-01-30T03:36:33;9.43;;;7.80;;
23702;SDS011;12030;50.376;8.762;2024-01-30T03:38:59;9.63;;;7.30;;
23702;SDS011;12030;50.376;8.762;2024-01-30T03:41:25;9.60;;;7.40;;
23702;SDS011;12030;50.376;8.762;2024-01-30T03:43:50;10.27;;;7.37;;
23702;SDS011;12030;50.376;8.762;2024-01-30T03:46:16;10.73;;;7.53;;
23702;SDS011;12030;50.376;8.762;2024-01-30T03:48:42;10.87;;;6.67;;
23702;SDS011;12030;50.376;8.762;2024-01-30T03:51:07;8.37;;;7.07;;
23702;SDS011;12030;50.376;8.762;2024-01-30T03:53:33;8.70;;;7.07;;
23702;SDS011;12030;50.376;8.762;2024-01-30T03:55:59;11.93;;;7.33;;
23702;SDS011;12030;50.376;8.762;2024-01-30T03:58:24;11.17;;;7.83;;
23702;SDS011;12030;50.376;8.762;2024-01-30T04:00:50;9.53;;;7.10;;
23702;SDS011;12030;50.376;8.762;2024-01-30T04:03:15;10.43;;;7.60;;
23702;SDS011;12030;50.376;8.762;2024-01-30T04:05:41;9.13;;;6.93;;
23702;SDS011;12030;50.376;8.762;2024-01-30T04:08:07;9.17;;;6.87;;
23702;SDS011;12030;50.376;8.762;2024-01-30T04:10:32;9.80;;;6.93;;
23702;SDS011;12030;50.376;8.762;2024-01-30T04:12:58;9.13;;;7.23;;
23702;SDS011;12030;50.376;8.762;2024-01-30T04:15:24;10.57;;;7.37;;
23702;SDS011;12030;50.376;8.762;2024-01-30T04:17:50;9.17;;;7.23;;
23702;SDS011;12030;50.376;8.762;2024-01-30T04:20:15;11.40;;;7.50;;
23702;SDS011;12030;50.376;8.762;2024-01-30T04:22:44;10.07;;;7.50;;
23702;SDS011;12030;50.376;8.762;2024-01-30T04:25:11;9.97;;;6.83;;
23702;SDS011;12030;50.376;8.762;2024-01-30T04:27:37;9.60;;;6.77;;
23702;SDS011;12030;50.376;8.762;2024-01-30T04:30:02;12.07;;;7.07;;
23702;SDS011;12030;50.376;8.762;2024-01-30T04:32:28;9.50;;;6.73;;
23702;SDS011;12030;50.376;8.762;2024-01-30T04:34:54;11.40;;;7.10;;
23702;SDS011;12030;50.376;8.762;2024-01-30T04:37:19;11.63;;;7.73;;
23702;SDS011;12030;50.376;8.762;2024-01-30T04:39:45;10.33;;;6.47;;
23702;SDS011;12030;50.376;8.762;2024-01-30T04:42:10;9.30;;;6.90;;
23702;SDS011;12030;50.376;8.762;2024-01-30T04:44:36;10.67;;;7.33;;
23702;SDS011;12030;50.376;8.762;2024-01-30T04:47:02;9.27;;;6.90;;
23702;SDS011;12030;50.376;8.762;2024-01-30T04:49:28;10.73;;;7.50;;
23702;SDS011;12030;50.376;8.762;2024-01-30T04:51:54;9.80;;;7.37;;
23702;SDS011;12030;50.376;8.762;2024-01-30T04:54:20;11.20;;;7.70;;
23702;SDS011;12030;50.376;8.762;2024-01-30T04:56:46;10.97;;;7.10;;
23702;SDS011;12030;50.376;8.762;2024-01-30T04:59:11;11.17;;;7.20;;
23702;SDS011;12030;50.376;8.762;2024-01-30T05:01:37;10.20;;;6.93;;
23702;SDS011;12030;50.376;8.762;2024-01-30T05:04:02;10.23;;;7.40;;
23702;SDS011;12030;50.376;8.762;2024-01-30T05:06:28;13.30;;;7.23;;
23702;SDS011;12030;50.376;8.762;2024-01-30T05:08:54;9.57;;;7.50;;
23702;SDS011;12030;50.376;8.762;2024-01-30T05:11:20;9.10;;;6.77;;
23702;SDS011;12030;50.376;8.762;2024-01-30T05:13:46;9.70;;;7.00;;
23702;SDS011;12030;50.376;8.762;2024-01-30T05:16:12;8.93;;;7.20;;
23702;SDS011;12030;50.376;8.762;2024-01-30T05:18:37;9.53;;;7.20;;
23702;SDS011;12030;50.376;8.762;2024-01-30T05:21:03;10.63;;;7.07;;
23702;SDS011;12030;50.376;8.762;2024-01-30T05:23:29;9.87;;;7.30;;
23702;SDS011;12030;50.376;8.762;2024-01-30T05:25:54;13.83;;;7.67;;
23702;SDS011;12030;50.376;8.762;2024-01-30T05:28:20;10.67;;;7.27;;
23702;SDS011;12030;50.376;8.762;2024-01-30T05:30:45;9.83;;;7.27;;
23702;SDS011;12030;50.376;8.762;2024-01-30T05:33:11;10.50;;;7.23;;
23702;SDS011;12030;50.376;8.762;2024-01-30T05:35:37;13.20;;;8.03;;
23702;SDS011;12030;50.376;8.762;2024-01-30T05:38:03;11.30;;;6.93;;
23702;SDS011;12030;50.376;8.762;2024-01-30T05:40:29;9.87;;;7.03;;
23702;SDS011;12030;50.376;8.762;2024-01-30T05:42:55;11.03;;;7.57;;
23702;SDS011;12030;50.376;8.762;2024-01-30T05:45:20;13.33;;;7.50;;
23702;SDS011;12030;50.376;8.762;2024-01-30T05:47:48;13.63;;;7.87;;
23702;SDS011;12030;50.376;8.762;2024-01-30T05:50:13;10.53;;;8.00;;
23702;SDS011;12030;50.376;8.762;2024-01-30T05:52:39;14.03;;;8.10;;
23702;SDS011;12030;50.376;8.762;2024-01-30T05:55:04;11.47;;;8.07;;
23702;SDS011;12030;50.376;8.762;2024-01-30T05:57:30;11.57;;;7.47;;
23702;SDS011;12030;50.376;8.762;2024-01-30T05:59:56;10.57;;;7.47;;
23702;SDS011;12030;50.376;8.762;2024-01-30T06:02:21;10.97;;;7.03;;
23702;SDS011;12030;50.376;8.762;2024-01-30T06:04:47;9.80;;;6.87;;
23702;SDS011;12030;50.376;8.762;2024-01-30T06:07:12;10.30;;;7.83;;
23702;SDS011;12030;50.376;8.762;2024-01-30T06:09:38;13.93;;;8.53;;
23702;SDS011;12030;50.376;8.762;2024-01-30T06:12:04;9.73;;;7.67;;
23702;SDS011;12030;50.376;8.762;2024-01-30T06:14:30;11.17;;;7.40;;
23702;SDS011;12030;50.376;8.762;2024-01-30T06:16:56;11.10;;;7.50;;
23702;SDS011;12030;50.376;8.762;2024-01-30T06:19:21;10.80;;;8.37;;
23702;SDS011;12030;50.376;8.762;2024-01-30T06:21:47;12.40;;;7.73;;
23702;SDS011;12030;50.376;8.762;2024-01-30T06:24:12;11.90;;;8.13;;
23702;SDS011;12030;50.376;8.762;2024-01-30T06:26:38;9.70;;;7.70;;
23702;SDS011;12030;50.376;8.762;2024-01-30T06:29:03;10.47;;;7.50;;
23702;SDS011;12030;50.376;8.762;2024-01-30T06:31:29;10.27;;;8.00;;
23702;SDS011;12030;50.376;8.762;2024-01-30T06:33:54;12.13;;;7.67;;
23702;SDS011;12030;50.376;8.762;2024-01-30T06:36:20;10.60;;;7.40;;
23702;SDS011;12030;50.376;8.762;2024-01-30T06:38:45;9.07;;;7.13;;
23702;SDS011;12030;50.376;8.762;2024-01-30T06:41:11;11.07;;;8.13;;
23702;SDS011;12030;50.376;8.762;2024-01-30T06:43:36;12.27;;;8.10;;
23702;SDS011;12030;50.376;8.762;2024-01-30T06:46:02;11.07;;;7.90;;
23702;SDS011;12030;50.376;8.762;2024-01-30T06:48:27;11.83;;;7.63;;
23702;SDS011;12030;50.376;8.762;2024-01-30T06:50:53;13.33;;;7.63;;
23702;SDS011;12030;50.376;8.762;2024-01-30T06:53:19;9.30;;;7.63;;
23702;SDS011;12030;50.376;8.762;2024-01-30T06:55:45;11.87;;;7.33;;
23702;SDS011;12030;50.376;8.762;2024-01-30T06:58:10;12.97;;;7.37;;
23702;SDS011;12030;50.376;8.762;2024-01-30T07:00:36;10.70;;;7.63;;
23702;SDS011;12030;50.376;8.762;2024-01-30T07:03:01;10.83;;;7.00;;
23702;SDS011;12030;50.376;8.762;2024-01-30T07:05:27;13.77;;;7.40;;
23702;SDS011;12030;50.376;8.762;2024-01-30T07:07:52;13.97;;;7.97;;
23702;SDS011;12030;50.376;8.762;2024-01-30T07:10:18;12.23;;;7.77;;
23702;SDS011;12030;50.376;8.762;2024-01-30T07:12:44;11.23;;;8.00;;
23702;SDS011;12030;50.376;8.762;2024-01-30T07:15:09;17.67;;;10.37;;
23702;SDS011;12030;50.376;8.762;2024-01-30T07:17:35;13.27;;;10.07;;
23702;SDS011;12030;50.376;8.762;2024-01-30T07:20:01;16.17;;;11.13;;
23702;SDS011;12030;50.376;8.762;2024-01-30T07:22:30;17.57;;;10.10;;
23702;SDS011;12030;50.376;8.762;2024-01-30T07:24:56;14.03;;;10.20;;
23702;SDS011;12030;50.376;8.762;2024-01-30T07:27:21;17.07;;;11.73;;
23702;SDS011;12030;50.376;8.762;2024-01-30T07:29:47;18.13;;;11.00;;
23702;SDS011;12030;50.376;8.762;2024-01-30T07:32:12;14.97;;;10.83;;
23702;SDS011;12030;50.376;8.762;2024-01-30T07:34:38;14.53;;;9.87;;
23702;SDS011;12030;50.376;8.762;2024-01-30T07:37:03;15.97;;;10.47;;
23702;SDS011;12030;50.376;8.762;2024-01-30T07:39:29;12.47;;;9.17;;
23702;SDS011;12030;50.376;8.762;2024-01-30T07:41:55;11.70;;;9.10;;
23702;SDS011;12030;50.376;8.762;2024-01-30T07:44:20;13.17;;;9.23;;
23702;SDS011;12030;50.376;8.762;2024-01-30T07:46:46;13.60;;;9.77;;
23702;SDS011;12030;50.376;8.762;2024-01-30T07:49:11;12.33;;;9.43;;
23702;SDS011;12030;50.376;8.762;2024-01-30T07:51:39;13.77;;;9.53;;
23702;SDS011;12030;50.376;8.762;2024-01-30T07:54:04;12.17;;;8.97;;
23702;SDS011;12030;50.376;8.762;2024-01-30T07:56:30;13.63;;;9.43;;
23702;SDS011;12030;50.376;8.762;2024-01-30T07:58:55;13.93;;;10.13;;
23702;SDS011;12030;50.376;8.762;2024-01-30T08:01:21;12.47;;;10.17;;
23702;SDS011;12030;50.376;8.762;2024-01-30T08:03:46;15.27;;;9.73;;
23702;SDS011;12030;50.376;8.762;2024-01-30T08:06:12;14.73;;;10.63;;
23702;SDS011;12030;50.376;8.762;2024-01-30T08:08:37;12.63;;;10.03;;
23702;SDS011;12030;50.376;8.762;2024-01-30T08:11:03;16.67;;;11.73;;
23702;SDS011;12030;50.376;8.762;2024-01-30T08:13:29;16.03;;;12.00;;
23702;SDS011;12030;50.376;8.762;2024-01-30T08:15:54;14.10;;;11.73;;
23702;SDS011;12030;50.376;8.762;2024-01-30T08:18:20;17.70;;;11.27;;
23702;SDS011;12030;50.376;8.762;2024-01-30T08:20:45;13.80;;;9.90;;
23702;SDS011;12030;50.376;8.762;2024-01-30T08:23:11;11.97;;;9.50;;
23702;SDS011;12030;50.376;8.762;2024-01-30T08:25:36;16.43;;;11.33;;
23702;SDS011;12030;50.376;8.762;2024-01-30T08:28:02;16.33;;;10.67;;
23702;SDS011;12030;50.376;8.762;2024-01-30T08:30:29;13.57;;;10.03;;
23702;SDS011;12030;50.376;8.762;2024-01-30T08:32:54;14.20;;;11.00;;
23702;SDS011;12030;50.376;8.762;2024-01-30T08:35:20;17.60;;;10.67;;
23702;SDS011;12030;50.376;8.762;2024-01-30T08:37:45;15.47;;;11.53;;
23702;SDS011;12030;50.376;8.762;2024-01-30T08:40:11;14.30;;;11.70;;
23702;SDS011;12030;50.376;8.762;2024-01-30T08:42:37;15.43;;;11.20;;
23702;SDS011;12030;50.376;8.762;2024-01-30T08:45:02;16.33;;;11.63;;
23702;SDS011;12030;50.376;8.762;2024-01-30T08:47:29;15.70;;;11.57;;
23702;SDS011;12030;50.376;8.762;2024-01-30T08:49:55;16.40;;;11.53;;
23702;SDS011;12030;50.376;8.762;2024-01-30T08:52:20;19.33;;;12.33;;
23702;SDS011;12030;50.376;8.762;2024-01-30T08:54:46;14.60;;;11.50;;
23702;SDS011;12030;50.376;8.762;2024-01-30T08:57:11;14.50;;;12.07;;
23702;SDS011;12030;50.376;8.762;2024-01-30T08:59:37;15.70;;;11.80;;
23702;SDS011;12030;50.376;8.762;2024-01-30T09:02:02;18.70;;;12.87;;
23702;SDS011;12030;50.376;8.762;2024-01-30T09:04:29;17.43;;;12.70;;
23702;SDS011;12030;50.376;8.762;2024-01-30T09:06:54;16.63;;;13.63;;
23702;SDS011;12030;50.376;8.762;2024-01-30T09:09:20;14.67;;;12.60;;
23702;SDS011;12030;50.376;8.762;2024-01-30T09:11:45;17.73;;;13.40;;
23702;SDS011;12030;50.376;8.762;2024-01-30T09:14:11;18.83;;;13.80;;
23702;SDS011;12030;50.376;8.762;2024-01-30T09:16:37;16.03;;;13.13;;
23702;SDS011;12030;50.376;8.762;2024-01-30T09:19:02;18.83;;;14.20;;
23702;SDS011;12030;50.376;8.762;2024-01-30T09:21:28;20.10;;;14.37;;
23702;SDS011;12030;50.376;8.762;2024-01-30T09:23:54;19.13;;;13.63;;
23702;SDS011;12030;50.376;8.762;2024-01-30T09:26:20;14.97;;;13.00;;
23702;SDS011;12030;50.376;8.762;2024-01-30T09:28:45;17.40;;;13.63;;
23702;SDS011;12030;50.376;8.762;2024-01-30T09:31:14;15.57;;;13.07;;
23702;SDS011;12030;50.376;8.762;2024-01-30T09:33:39;17.13;;;12.73;;
23702;SDS011;12030;50.376;8.762;2024-01-30T09:36:06;15.77;;;13.43;;
23702;SDS011;12030;50.376;8.762;2024-01-30T09:38:32;16.50;;;13.50;;
23702;SDS011;12030;50.376;8.762;2024-01-30T09:40:57;16.60;;;12.50;;
23702;SDS011;12030;50.376;8.762;2024-01-30T09:43:31;16.50;;;12.87;;
23702;SDS011;12030;50.376;8.762;2024-01-30T09:45:59;15.47;;;13.00;;
23702;SDS011;12030;50.376;8.762;2024-01-30T09:48:27;14.87;;;13.27;;
23702;SDS011;12030;50.376;8.762;2024-01-30T09:50:54;17.20;;;13.63;;
23702;SDS011;12030;50.376;8.762;2024-01-30T09:53:21;15.33;;;13.07;;
23702;SDS011;12030;50.376;8.762;2024-01-30T09:55:47;16.90;;;13.47;;
23702;SDS011;12030;50.376;8.762;2024-01-30T09:58:15;14.87;;;13.20;;
23702;SDS011;12030;50.376;8.762;2024-01-30T10:00:41;14.03;;;11.60;;
23702;SDS011;12030;50.376;8.762;2024-01-30T10:03:07;14.23;;;12.60;;
23702;SDS011;12030;50.376;8.762;2024-01-30T10:05:33;16.53;;;12.83;;
23702;SDS011;12030;50.376;8.762;2024-01-30T10:08:05;15.13;;;12.93;;
23702;SDS011;12030;50.376;8.762;2024-01-30T10:10:33;16.17;;;12.57;;
23702;SDS011;12030;50.376;8.762;2024-01-30T10:12:59;16.20;;;13.40;;
23702;SDS011;12030;50.376;8.762;2024-01-30T10:15:24;16.00;;;13.47;;
23702;SDS011;12030;50.376;8.762;2024-01-30T10:17:52;15.07;;;12.93;;
23702;SDS011;12030;50.376;8.762;2024-01-30T10:20:17;14.83;;;12.70;;
23702;SDS011;12030;50.376;8.762;2024-01-30T10:22:44;16.60;;;13.33;;
23702;SDS011;12030;50.376;8.762;2024-01-30T10:25:10;15.53;;;12.80;;
23702;SDS011;12030;50.376;8.762;2024-01-30T10:27:36;16.07;;;13.47;;
23702;SDS011;12030;50.376;8.762;2024-01-30T10:30:04;15.30;;;13.53;;
23702;SDS011;12030;50.376;8.762;2024-01-30T10:32:30;15.00;;;12.47;;
23702;SDS011;12030;50.376;8.762;2024-01-30T10:34:55;14.83;;;12.53;;
23702;SDS011;12030;50.376;8.762;2024-01-30T10:37:21;16.57;;;12.90;;
23702;SDS011;12030;50.376;8.762;2024-01-30T10:39:50;16.07;;;13.53;;
23702;SDS011;12030;50.376;8.762;2024-01-30T10:42:18;14.13;;;12.70;;
23702;SDS011;12030;50.376;8.762;2024-01-30T10:47:17;15.73;;;13.13;;
23702;SDS011;12030;50.376;8.762;2024-01-30T10:49:47;14.60;;;12.80;;
23702;SDS011;12030;50.376;8.762;2024-01-30T10:52:13;13.27;;;11.87;;
23702;SDS011;12030;50.376;8.762;2024-01-30T10:54:39;15.27;;;12.60;;
23702;SDS011;12030;50.376;8.762;2024-01-30T10:57:09;14.97;;;12.93;;
23702;SDS011;12030;50.376;8.762;2024-01-30T10:59:37;14.83;;;13.07;;
23702;SDS011;12030;50.376;8.762;2024-01-30T11:02:03;14.97;;;13.37;;
23702;SDS011;12030;50.376;8.762;2024-01-30T11:04:37;15.90;;;13.23;;
23702;SDS011;12030;50.376;8.762;2024-01-30T11:07:48;16.53;;;13.53;;
23702;SDS011;12030;50.376;8.762;2024-01-30T11:12:16;14.93;;;12.63;;
23702;SDS011;12030;50.376;8.762;2024-01-30T11:14:46;15.63;;;13.20;;
23702;SDS011;12030;50.376;8.762;2024-01-30T11:17:11;14.93;;;13.33;;
23702;SDS011;12030;50.376;8.762;2024-01-30T11:19:37;14.13;;;12.63;;
23702;SDS011;12030;50.376;8.762;2024-01-30T11:22:03;17.57;;;12.57;;
23702;SDS011;12030;50.376;8.762;2024-01-30T11:24:36;14.27;;;12.73;;
23702;SDS011;12030;50.376;8.762;2024-01-30T11:27:08;14.17;;;12.67;;
23702;SDS011;12030;50.376;8.762;2024-01-30T11:29:35;15.70;;;13.00;;
23702;SDS011;12030;50.376;8.762;2024-01-30T11:32:01;15.63;;;13.17;;
23702;SDS011;12030;50.376;8.762;2024-01-30T11:34:27;14.93;;;12.27;;
23702;SDS011;12030;50.376;8.762;2024-01-30T11:36:57;15.43;;;12.83;;
23702;SDS011;12030;50.376;8.762;2024-01-30T11:39:27;14.57;;;12.90;;
23702;SDS011;12030;50.376;8.762;2024-01-30T11:41:54;16.60;;;13.00;;
23702;SDS011;12030;50.376;8.762;2024-01-30T11:44:20;15.23;;;12.83;;
23702;SDS011;12030;50.376;8.762;2024-01-30T11:46:47;15.67;;;13.17;;
23702;SDS011;12030;50.376;8.762;2024-01-30T11:49:13;14.93;;;12.73;;
23702;SDS011;12030;50.376;8.762;2024-01-30T11:51:39;15.73;;;12.67;;
23702;SDS011;12030;50.376;8.762;2024-01-30T11:54:04;14.40;;;12.90;;
23702;SDS011;12030;50.376;8.762;2024-01-30T11:56:30;15.23;;;13.07;;
23702;SDS011;12030;50.376;8.762;2024-01-30T11:58:55;15.63;;;13.13;;
23702;SDS011;12030;50.376;8.762;2024-01-30T12:01:21;15.43;;;11.90;;
23702;SDS011;12030;50.376;8.762;2024-01-30T12:03:50;14.63;;;12.47;;
23702;SDS011;12030;50.376;8.762;2024-01-30T12:06:16;14.93;;;12.70;;
23702;SDS011;12030;50.376;8.762;2024-01-30T12:08:42;14.97;;;12.33;;
23702;SDS011;12030;50.376;8.762;2024-01-30T12:11:07;15.13;;;12.90;;
23702;SDS011;12030;50.376;8.762;2024-01-30T12:13:33;13.97;;;12.47;;
23702;SDS011;12030;50.376;8.762;2024-01-30T12:16:02;13.37;;;11.97;;
23702;SDS011;12030;50.376;8.762;2024-01-30T12:18:28;13.93;;;11.70;;
23702;SDS011;12030;50.376;8.762;2024-01-30T12:20:56;13.80;;;11.80;;
23702;SDS011;12030;50.376;8.762;2024-01-30T12:23:26;18.20;;;12.47;;
23702;SDS011;12030;50.376;8.762;2024-01-30T12:25:52;14.20;;;12.00;;
23702;SDS011;12030;50.376;8.762;2024-01-30T12:28:19;12.83;;;11.53;;
23702;SDS011;12030;50.376;8.762;2024-01-30T12:30:45;14.23;;;12.10;;
23702;SDS011;12030;50.376;8.762;2024-01-30T12:33:15;14.73;;;12.77;;
23702;SDS011;12030;50.376;8.762;2024-01-30T12:35:45;13.93;;;12.07;;
23702;SDS011;12030;50.376;8.762;2024-01-30T12:38:12;16.10;;;12.07;;
23702;SDS011;12030;50.376;8.762;2024-01-30T12:40:38;15.47;;;12.00;;
23702;SDS011;12030;50.376;8.762;2024-01-30T12:43:04;13.87;;;11.80;;
23702;SDS011;12030;50.376;8.762;2024-01-30T12:45:29;13.70;;;11.80;;
23702;SDS011;12030;50.376;8.762;2024-01-30T12:47:55;13.13;;;11.40;;
23702;SDS011;12030;50.376;8.762;2024-01-30T12:50:20;14.23;;;11.80;;
23702;SDS011;12030;50.376;8.762;2024-01-30T12:52:47;13.00;;;10.80;;
23702;SDS011;12030;50.376;8.762;2024-01-30T12:55:13;13.27;;;11.80;;
23702;SDS011;12030;50.376;8.762;2024-01-30T12:57:38;13.30;;;11.47;;
23702;SDS011;12030;50.376;8.762;2024-01-30T13:00:04;13.87;;;11.67;;
23702;SDS011;12030;50.376;8.762;2024-01-30T13:02:33;14.93;;;11.60;;
23702;SDS011;12030;50.376;8.762;2024-01-30T13:05:02;15.63;;;12.10;;
23702;SDS011;12030;50.376;8.762;2024-01-30T13:07:29;16.53;;;11.97;;
23702;SDS011;12030;50.376;8.762;2024-01-30T13:09:54;12.73;;;11.03;;
23702;SDS011;12030;50.376;8.762;2024-01-30T13:12:21;15.03;;;11.33;;
23702;SDS011;12030;50.376;8.762;2024-01-30T13:14:46;14.07;;;11.40;;
23702;SDS011;12030;50.376;8.762;2024-01-30T13:17:12;12.40;;;11.10;;
23702;SDS011;12030;50.376;8.762;2024-01-30T13:19:38;12.83;;;11.17;;
23702;SDS011;12030;50.376;8.762;2024-01-30T13:22:03;12.47;;;11.13;;
23702;SDS011;12030;50.376;8.762;2024-01-30T13:24:29;13.20;;;10.93;;
23702;SDS011;12030;50.376;8.762;2024-01-30T13:26:54;14.23;;;11.77;;
23702;SDS011;12030;50.376;8.762;2024-01-30T13:29:20;13.77;;;11.40;;
23702;SDS011;12030;50.376;8.762;2024-01-30T13:31:45;14.07;;;10.80;;
23702;SDS011;12030;50.376;8.762;2024-01-30T13:34:11;13.90;;;11.10;;
23702;SDS011;12030;50.376;8.762;2024-01-30T13:36:38;12.53;;;11.07;;
23702;SDS011;12030;50.376;8.762;2024-01-30T13:39:04;14.30;;;11.17;;
23702;SDS011;12030;50.376;8.762;2024-01-30T13:41:34;15.10;;;11.37;;
23702;SDS011;12030;50.376;8.762;2024-01-30T13:43:59;12.30;;;11.00;;
23702;SDS011;12030;50.376;8.762;2024-01-30T13:46:25;12.80;;;10.80;;
23702;SDS011;12030;50.376;8.762;2024-01-30T13:48:50;11.97;;;10.30;;
23702;SDS011;12030;50.376;8.762;2024-01-30T13:51:16;12.50;;;10.10;;
23702;SDS011;12030;50.376;8.762;2024-01-30T13:53:42;12.90;;;10.37;;
23702;SDS011;12030;50.376;8.762;2024-01-30T13:56:07;11.97;;;10.63;;
23702;SDS011;12030;50.376;8.762;2024-01-30T13:58:33;10.80;;;9.70;;
23702;SDS011;12030;50.376;8.762;2024-01-30T14:01:01;13.10;;;9.93;;
23702;SDS011;12030;50.376;8.762;2024-01-30T14:03:26;12.73;;;9.80;;
23702;SDS011;12030;50.376;8.762;2024-01-30T14:05:52;11.07;;;9.33;;
23702;SDS011;12030;50.376;8.762;2024-01-30T14:08:18;11.47;;;8.83;;
23702;SDS011;12030;50.376;8.762;2024-01-30T14:10:46;10.13;;;9.10;;
23702;SDS011;12030;50.376;8.762;2024-01-30T14:13:12;9.60;;;8.70;;
23702;SDS011;12030;50.376;8.762;2024-01-30T14:15:37;12.40;;;9.67;;
23702;SDS011;12030;50.376;8.762;2024-01-30T14:18:03;10.60;;;9.47;;
23702;SDS011;12030;50.376;8.762;2024-01-30T14:20:30;13.10;;;9.33;;
23702;SDS011;12030;50.376;8.762;2024-01-30T14:22:56;11.77;;;9.43;;
23702;SDS011;12030;50.376;8.762;2024-01-30T14:25:22;12.50;;;9.40;;
23702;SDS011;12030;50.376;8.762;2024-01-30T14:27:47;12.20;;;9.33;;
23702;SDS011;12030;50.376;8.762;2024-01-30T14:30:13;10.90;;;9.10;;